createdAt,value
2018-04-27T00:00:55.722Z,57.50
2018-04-27T00:05:58.673Z,57.50
2018-04-27T00:11:02.133Z,57.40
2018-04-27T00:16:04.957Z,57.20
2018-04-27T00:21:07.880Z,57.90
2018-04-27T00:26:11.210Z,57.90
2018-04-27T00:31:14.612Z,58.20
2018-04-27T00:36:17.393Z,58.20
2018-04-27T00:41:21.963Z,58.50
2018-04-27T00:46:25.822Z,58.80
2018-04-27T00:51:28.390Z,59.40
2018-04-27T00:56:31.344Z,59.30
2018-04-27T01:01:34.470Z,59.30
2018-04-27T01:06:37.287Z,59.60
2018-04-27T01:11:40.286Z,60.00
2018-04-27T01:16:43.228Z,60.00
2018-04-27T01:21:46.249Z,59.90
2018-04-27T01:26:49.663Z,59.80
2018-04-27T01:31:52.411Z,60.40
2018-04-27T01:36:56.698Z,60.70
2018-04-27T01:42:00.336Z,60.60
2018-04-27T01:47:03.865Z,60.60
2018-04-27T01:52:08.809Z,60.60
2018-04-27T01:57:11.504Z,61.40
2018-04-27T02:02:14.362Z,61.20
2018-04-27T02:07:16.895Z,61.40
2018-04-27T02:12:19.404Z,61.60
2018-04-27T02:17:22.828Z,62.00
2018-04-27T02:22:27.059Z,61.60
2018-04-27T02:27:29.901Z,62.00
2018-04-27T02:32:32.635Z,62.20
2018-04-27T02:37:35.721Z,62.20
2018-04-27T02:42:38.496Z,62.00
2018-04-27T02:47:42.041Z,62.40
2018-04-27T02:52:44.593Z,63.10
2018-04-27T02:57:47.110Z,63.10
2018-04-27T03:02:50.524Z,63.10
2018-04-27T03:07:54.149Z,63.10
2018-04-27T03:12:58.525Z,63.30
2018-04-27T03:18:01.132Z,62.80
2018-04-27T03:23:03.926Z,63.40
2018-04-27T03:28:06.713Z,63.10
2018-04-27T03:33:10.137Z,63.00
2018-04-27T03:38:13.123Z,63.50
2018-04-27T03:43:16.391Z,63.80
2018-04-27T03:48:19.282Z,63.70
2018-04-27T03:53:22.353Z,64.10
2018-04-27T03:58:25.149Z,63.60
2018-04-27T04:03:44.903Z,64.10
2018-04-27T04:08:47.447Z,64.50
2018-04-27T04:13:50.420Z,64.30
2018-04-27T04:18:53.308Z,64.30
2018-04-27T04:23:56.515Z,64.40
2018-04-27T04:29:00.228Z,64.90
2018-04-27T04:34:02.801Z,64.60
2018-04-27T04:39:05.501Z,64.90
2018-04-27T04:44:08.012Z,65.40
2018-04-27T04:49:11.687Z,66.10
2018-04-27T04:54:15.080Z,66.00
2018-04-27T04:59:17.685Z,66.10
2018-04-27T05:04:21.721Z,66.00
2018-04-27T05:09:25.838Z,65.70
2018-04-27T05:14:28.733Z,66.00
2018-04-27T05:19:31.264Z,66.00
2018-04-27T05:24:33.997Z,65.80
2018-04-27T05:29:37.377Z,65.80
2018-04-27T05:34:40.308Z,65.80
2018-04-27T05:39:43.087Z,65.60
2018-04-27T05:44:45.994Z,66.20
2018-04-27T05:49:49.669Z,66.10
2018-04-27T05:54:52.356Z,66.50
2018-04-27T05:59:54.880Z,66.00
2018-04-27T06:04:58.155Z,66.30
2018-04-27T06:10:03.632Z,66.40
2018-04-27T06:15:07.013Z,66.20
2018-04-27T06:25:17.825Z,65.20
2018-04-27T06:30:22.228Z,66.10
2018-04-27T06:35:25.487Z,64.80
2018-04-27T06:40:29.263Z,65.00
2018-04-27T06:45:32.890Z,64.90
2018-04-27T06:50:37.048Z,64.50
2018-04-27T06:55:39.880Z,64.40
2018-04-27T07:00:43.480Z,63.60
2018-04-27T07:05:46.033Z,63.60
2018-04-27T07:10:48.915Z,63.80
2018-04-27T07:15:51.732Z,62.90
2018-04-27T07:20:54.763Z,61.80
2018-04-27T07:25:58.382Z,61.10
2018-04-27T07:31:00.912Z,60.80
2018-04-27T07:36:03.828Z,59.40
2018-04-27T07:41:06.689Z,58.60
2018-04-27T07:46:10.085Z,57.80
2018-04-27T07:56:20.098Z,56.40
2018-04-27T08:01:23.269Z,55.40
2018-04-27T08:06:26.066Z,55.00
2018-04-27T08:11:30.301Z,54.50
2018-04-27T08:16:35.687Z,53.60
2018-04-27T08:21:40.089Z,53.60
2018-04-27T08:26:44.223Z,52.20
2018-04-27T08:31:49.493Z,51.50
2018-04-27T08:36:55.555Z,51.40
2018-04-27T08:41:58.246Z,50.60
2018-04-27T08:47:01.179Z,49.70
2018-04-27T08:52:03.842Z,48.20
2018-04-27T08:57:06.558Z,46.80
2018-04-27T09:02:09.958Z,45.60
2018-04-27T09:07:13.306Z,46.10
2018-04-27T09:12:17.032Z,45.50
2018-04-27T09:17:20.537Z,45.10
2018-04-27T09:22:25.215Z,43.10
2018-04-27T09:27:28.171Z,41.60
2018-04-27T09:37:37.995Z,40.20
2018-04-27T09:42:41.065Z,40.30
2018-04-27T09:47:44.615Z,38.90
2018-04-27T09:52:48.479Z,37.10
2018-04-27T09:57:51.487Z,37.10
2018-04-27T10:02:55.019Z,38.40
2018-04-27T10:07:57.879Z,38.20
2018-04-27T10:13:00.890Z,38.00
2018-04-27T10:18:04.474Z,38.30
2018-04-27T10:23:06.992Z,37.90
2018-04-27T10:28:09.957Z,37.20
2018-04-27T10:33:15.126Z,36.30
2018-04-27T10:38:18.034Z,35.80
2018-04-27T10:43:22.457Z,36.40
2018-04-27T10:48:25.610Z,37.00
2018-04-27T10:53:29.122Z,36.40
2018-04-27T10:58:33.607Z,35.70
2018-04-27T11:03:37.008Z,35.40
2018-04-27T11:08:40.904Z,34.80
2018-04-27T11:13:46.213Z,34.30
2018-04-27T11:18:54.100Z,33.80
2018-04-27T11:29:05.957Z,33.70
2018-04-27T11:34:09.221Z,33.80
2018-04-27T11:39:12.225Z,34.40
2018-04-27T11:44:14.955Z,35.00
2018-04-27T11:49:17.486Z,34.70
2018-04-27T11:54:20.554Z,34.50
2018-04-27T11:59:24.369Z,34.40
2018-04-27T12:04:27.073Z,34.50
2018-04-27T12:09:30.538Z,33.70
2018-04-27T12:14:33.543Z,34.20
2018-04-27T12:19:36.917Z,34.70
2018-04-27T12:24:39.441Z,35.70
2018-04-27T12:29:43.051Z,35.00
2018-04-27T12:34:46.415Z,34.90
2018-04-27T12:39:48.958Z,35.10
2018-04-27T12:44:52.937Z,35.10
2018-04-27T12:49:55.523Z,34.30
2018-04-27T12:54:58.150Z,34.60
2018-04-27T13:00:00.728Z,34.60
2018-04-27T13:05:08.094Z,34.00
2018-04-27T13:10:12.556Z,35.40
2018-04-27T13:15:15.104Z,35.00
2018-04-27T13:20:17.971Z,35.60
2018-04-27T13:25:21.122Z,34.80
2018-04-27T13:30:23.704Z,34.30
2018-04-27T13:35:26.847Z,34.70
2018-04-27T13:40:29.416Z,35.10
2018-04-27T13:45:32.824Z,35.40
2018-04-27T13:50:35.372Z,34.10
2018-04-27T13:55:38.607Z,34.10
2018-04-27T14:00:41.299Z,34.20
2018-04-27T14:05:44.715Z,35.30
2018-04-27T14:10:49.311Z,35.40
2018-04-27T14:15:52.478Z,34.20
2018-04-27T14:20:56.046Z,33.90
2018-04-27T14:25:58.648Z,33.80
2018-04-27T14:36:10.769Z,34.30
2018-04-27T14:41:13.734Z,34.80
2018-04-27T14:46:17.299Z,34.10
2018-04-27T14:51:22.059Z,33.40
2018-04-27T14:56:25.674Z,34.50
2018-04-27T15:01:29.649Z,34.50
2018-04-27T15:06:35.316Z,34.50
2018-04-27T15:11:37.877Z,34.50
2018-04-27T15:16:40.582Z,34.30
2018-04-27T15:21:46.947Z,33.30
2018-04-27T15:26:49.757Z,33.20
2018-04-27T15:31:54.400Z,33.50
2018-04-27T15:36:57.189Z,32.30
2018-04-27T15:41:59.902Z,33.70
2018-04-27T15:47:02.797Z,32.80
2018-04-27T15:52:05.655Z,33.90
2018-04-27T15:57:08.563Z,34.00
2018-04-27T16:02:11.778Z,34.50
2018-04-27T16:07:16.760Z,35.80
2018-04-27T16:12:19.344Z,35.10
2018-04-27T16:17:22.922Z,35.20
2018-04-27T16:22:28.108Z,35.50
2018-04-27T16:27:31.576Z,35.40
2018-04-27T16:32:34.146Z,35.70
2018-04-27T16:37:36.745Z,36.00
2018-04-27T16:42:42.711Z,36.40
2018-04-27T16:52:53.230Z,36.90
2018-04-27T16:57:58.171Z,37.00
2018-04-27T17:03:01.890Z,37.40
2018-04-27T17:08:05.011Z,37.30
2018-04-27T17:18:15.172Z,37.90
2018-04-27T17:23:20.062Z,38.10
2018-04-27T17:28:26.497Z,38.50
2018-04-27T17:33:32.551Z,39.00
2018-04-27T17:38:37.848Z,39.30
2018-04-27T17:43:41.885Z,40.00
2018-04-27T17:48:44.445Z,39.90
2018-04-27T17:53:48.899Z,40.30
2018-04-27T17:58:51.813Z,41.00
2018-04-27T18:03:55.608Z,41.60
2018-04-27T18:09:02.112Z,42.10
2018-04-27T18:14:05.262Z,42.50
2018-04-27T18:19:13.185Z,42.80
2018-04-27T18:24:16.145Z,43.20
2018-04-27T18:29:19.143Z,43.40
2018-04-27T18:34:21.998Z,44.00
2018-04-27T18:39:25.037Z,44.40
2018-04-27T18:44:28.078Z,45.50
2018-04-27T18:49:30.708Z,46.20
2018-04-27T18:54:35.103Z,46.90
2018-04-27T18:59:53.326Z,48.30
2018-04-27T19:04:57.812Z,48.40
2018-04-27T19:10:00.775Z,48.80
2018-04-27T19:15:03.527Z,49.10
2018-04-27T19:25:14.669Z,49.60
2018-04-27T19:30:20.955Z,49.80
2018-04-27T19:35:26.110Z,50.00
2018-04-27T19:40:29.204Z,50.20
2018-04-27T19:50:39.273Z,50.70
2018-04-27T20:00:49.991Z,51.60
2018-04-27T20:05:54.524Z,51.60
2018-04-27T20:11:00.163Z,52.00
2018-04-27T20:16:03.774Z,52.30
2018-04-27T20:21:08.223Z,52.70
2018-04-27T20:26:15.300Z,52.90
2018-04-27T20:31:20.041Z,53.20
2018-04-27T20:36:24.392Z,53.50
2018-04-27T20:41:29.473Z,54.10
2018-04-27T20:46:32.088Z,54.30
2018-04-27T20:51:36.784Z,55.00
2018-04-27T21:01:52.170Z,55.10
2018-04-27T21:06:57.381Z,55.20
2018-04-27T21:12:01.784Z,55.60
2018-04-27T21:17:04.943Z,55.70
2018-04-27T21:22:08.532Z,56.10
2018-04-27T21:27:12.063Z,56.50
2018-04-27T21:32:16.253Z,56.60
2018-04-27T21:42:27.216Z,57.00
2018-04-27T21:47:35.678Z,57.50
2018-04-27T21:52:50.773Z,58.00
2018-04-27T21:57:58.520Z,58.80
2018-04-27T22:08:45.919Z,58.90
2018-04-27T22:13:48.874Z,58.80
2018-04-27T22:24:05.154Z,59.40
2018-04-27T22:34:28.677Z,59.40
2018-04-27T22:39:51.528Z,60.00
2018-04-27T22:45:01.844Z,60.00
2018-04-27T22:50:06.472Z,60.50
2018-04-27T22:55:12.748Z,60.50
2018-04-27T23:00:18.713Z,60.60
2018-04-27T23:05:35.367Z,61.10
2018-04-27T23:15:52.884Z,61.70
2018-04-27T23:20:56.356Z,61.60
2018-04-27T23:25:58.948Z,61.40
2018-04-27T23:31:06.499Z,61.50
2018-04-27T23:36:09.033Z,61.40
2018-04-27T23:41:11.675Z,61.70
2018-04-27T23:46:17.607Z,61.50
2018-04-27T23:51:21.680Z,61.70
2018-04-27T23:56:30.108Z,61.80
